sensor_id;sensor_type;location;lat;lon;timestamp;P1;durP1;ratioP1;P2;durP2;ratioP2
48026;SDS011;50714;49.208;5.364;2023-07-16T05:58:29;4.30;;;2.25;;
48026;SDS011;50714;49.208;5.364;2023-07-16T06:08:30;4.18;;;2.15;;
48026;SDS011;50714;49.208;5.364;2023-07-16T06:18:30;3.38;;;2.03;;
48026;SDS011;50714;49.208;5.364;2023-07-16T06:28:31;3.13;;;2.08;;
48026;SDS011;50714;49.208;5.364;2023-07-16T06:38:32;5.82;;;2.33;;
48026;SDS011;50714;49.208;5.364;2023-07-16T06:48:32;4.80;;;2.35;;
48026;SDS011;50714;49.208;5.364;2023-07-16T06:58:33;4.28;;;2.15;;
48026;SDS011;50714;49.208;5.364;2023-07-16T07:08:33;4.60;;;3.30;;
48026;SDS011;50714;49.208;5.364;2023-07-16T07:18:34;8.10;;;3.45;;
48026;SDS011;50714;49.208;5.364;2023-07-16T07:28:34;9.07;;;4.43;;
48026;SDS011;50714;49.208;5.364;2023-07-16T07:38:34;6.78;;;4.35;;
48026;SDS011;50714;49.208;5.364;2023-07-16T07:48:35;5.28;;;4.20;;
48026;SDS011;50714;49.208;5.364;2023-07-16T07:58:35;5.18;;;3.63;;
48026;SDS011;50714;49.208;5.364;2023-07-16T08:08:36;4.90;;;3.63;;
48026;SDS011;50714;49.208;5.364;2023-07-16T08:18:36;5.60;;;4.05;;
48026;SDS011;50714;49.208;5.364;2023-07-16T08:28:36;6.50;;;3.63;;
48026;SDS011;50714;49.208;5.364;2023-07-16T08:38:36;6.25;;;4.07;;
48026;SDS011;50714;49.208;5.364;2023-07-16T08:48:37;7.03;;;3.80;;
48026;SDS011;50714;49.208;5.364;2023-07-16T08:58:37;5.53;;;3.30;;
48026;SDS011;50714;49.208;5.364;2023-07-16T09:08:38;4.78;;;3.13;;
48026;SDS011;50714;49.208;5.364;2023-07-16T09:18:39;5.22;;;3.42;;
48026;SDS011;50714;49.208;5.364;2023-07-16T09:28:40;5.22;;;2.85;;
48026;SDS011;50714;49.208;5.364;2023-07-16T09:38:40;4.15;;;2.72;;
48026;SDS011;50714;49.208;5.364;2023-07-16T09:48:41;3.50;;;2.28;;
48026;SDS011;50714;49.208;5.364;2023-07-16T09:58:41;4.18;;;2.40;;
48026;SDS011;50714;49.208;5.364;2023-07-16T10:08:48;4.10;;;2.13;;
48026;SDS011;50714;49.208;5.364;2023-07-16T10:18:52;3.40;;;2.15;;
48026;SDS011;50714;49.208;5.364;2023-07-16T10:38:53;4.03;;;2.45;;
48026;SDS011;50714;49.208;5.364;2023-07-16T10:48:54;3.25;;;2.42;;
48026;SDS011;50714;49.208;5.364;2023-07-16T10:58:54;3.15;;;2.35;;
48026;SDS011;50714;49.208;5.364;2023-07-16T11:08:54;4.22;;;2.65;;
48026;SDS011;50714;49.208;5.364;2023-07-16T11:19:05;3.13;;;2.30;;
48026;SDS011;50714;49.208;5.364;2023-07-16T11:29:12;5.78;;;2.95;;
48026;SDS011;50714;49.208;5.364;2023-07-16T11:39:14;5.13;;;2.58;;
48026;SDS011;50714;49.208;5.364;2023-07-16T11:49:14;3.75;;;2.30;;
48026;SDS011;50714;49.208;5.364;2023-07-16T11:59:15;3.80;;;2.50;;
48026;SDS011;50714;49.208;5.364;2023-07-16T12:09:20;3.20;;;2.33;;
48026;SDS011;50714;49.208;5.364;2023-07-16T12:19:20;3.33;;;2.13;;
48026;SDS011;50714;49.208;5.364;2023-07-16T12:29:20;3.45;;;2.42;;
48026;SDS011;50714;49.208;5.364;2023-07-16T12:39:21;3.55;;;2.42;;
48026;SDS011;50714;49.208;5.364;2023-07-16T12:49:21;3.63;;;2.70;;
48026;SDS011;50714;49.208;5.364;2023-07-16T12:59:21;4.57;;;2.30;;
48026;SDS011;50714;49.208;5.364;2023-07-16T13:09:24;3.50;;;2.45;;
48026;SDS011;50714;49.208;5.364;2023-07-16T13:19:24;3.13;;;2.15;;
48026;SDS011;50714;49.208;5.364;2023-07-16T13:29:25;3.42;;;2.33;;
48026;SDS011;50714;49.208;5.364;2023-07-16T13:39:25;2.47;;;1.95;;
48026;SDS011;50714;49.208;5.364;2023-07-16T13:49:25;2.90;;;2.13;;
48026;SDS011;50714;49.208;5.364;2023-07-16T13:59:26;2.95;;;2.03;;
48026;SDS011;50714;49.208;5.364;2023-07-16T14:09:26;3.88;;;2.00;;
48026;SDS011;50714;49.208;5.364;2023-07-16T14:19:27;2.50;;;1.90;;
48026;SDS011;50714;49.208;5.364;2023-07-16T14:29:27;2.95;;;1.95;;
48026;SDS011;50714;49.208;5.364;2023-07-16T14:39:29;2.97;;;2.00;;
48026;SDS011;50714;49.208;5.364;2023-07-16T14:49:29;4.78;;;2.40;;
48026;SDS011;50714;49.208;5.364;2023-07-16T14:59:30;2.00;;;1.50;;
48026;SDS011;50714;49.208;5.364;2023-07-16T15:09:30;3.78;;;2.22;;
48026;SDS011;50714;49.208;5.364;2023-07-16T15:19:32;3.65;;;2.17;;
48026;SDS011;50714;49.208;5.364;2023-07-16T15:29:33;4.90;;;2.20;;
48026;SDS011;50714;49.208;5.364;2023-07-16T15:39:34;3.00;;;1.70;;
48026;SDS011;50714;49.208;5.364;2023-07-16T15:49:34;3.15;;;1.90;;
48026;SDS011;50714;49.208;5.364;2023-07-16T15:59:35;2.83;;;1.65;;
48026;SDS011;50714;49.208;5.364;2023-07-16T16:09:35;2.67;;;1.73;;
48026;SDS011;50714;49.208;5.364;2023-07-16T16:19:35;3.58;;;1.92;;
48026;SDS011;50714;49.208;5.364;2023-07-16T16:29:36;2.65;;;1.80;;
48026;SDS011;50714;49.208;5.364;2023-07-16T16:39:36;3.67;;;1.92;;
48026;SDS011;50714;49.208;5.364;2023-07-16T16:49:36;3.70;;;2.00;;
48026;SDS011;50714;49.208;5.364;2023-07-16T16:59:37;3.15;;;2.15;;
48026;SDS011;50714;49.208;5.364;2023-07-16T17:09:37;2.80;;;2.10;;
48026;SDS011;50714;49.208;5.364;2023-07-16T17:19:38;3.25;;;2.08;;
48026;SDS011;50714;49.208;5.364;2023-07-16T17:29:41;3.25;;;2.17;;
48026;SDS011;50714;49.208;5.364;2023-07-16T17:39:42;3.05;;;2.40;;
48026;SDS011;50714;49.208;5.364;2023-07-16T17:49:47;3.38;;;2.28;;
48026;SDS011;50714;49.208;5.364;2023-07-16T17:59:48;4.23;;;2.50;;
48026;SDS011;50714;49.208;5.364;2023-07-16T18:09:48;3.60;;;2.40;;
48026;SDS011;50714;49.208;5.364;2023-07-16T18:19:53;3.60;;;2.42;;
48026;SDS011;50714;49.208;5.364;2023-07-16T18:29:57;3.70;;;2.40;;
48026;SDS011;50714;49.208;5.364;2023-07-16T18:39:58;4.55;;;2.60;;
48026;SDS011;50714;49.208;5.364;2023-07-16T18:49:59;4.50;;;2.80;;
48026;SDS011;50714;49.208;5.364;2023-07-16T19:00:00;3.90;;;2.55;;
48026;SDS011;50714;49.208;5.364;2023-07-16T19:10:00;4.22;;;2.45;;
48026;SDS011;50714;49.208;5.364;2023-07-16T19:20:00;3.35;;;2.13;;
48026;SDS011;50714;49.208;5.364;2023-07-16T19:30:01;3.90;;;2.97;;
48026;SDS011;50714;49.208;5.364;2023-07-16T19:40:01;3.75;;;2.65;;
48026;SDS011;50714;49.208;5.364;2023-07-16T19:50:04;4.15;;;2.75;;
48026;SDS011;50714;49.208;5.364;2023-07-16T20:00:06;4.75;;;3.10;;
48026;SDS011;50714;49.208;5.364;2023-07-16T20:10:11;4.20;;;3.37;;
48026;SDS011;50714;49.208;5.364;2023-07-16T20:20:12;3.97;;;2.95;;
48026;SDS011;50714;49.208;5.364;2023-07-16T20:30:14;4.90;;;2.90;;
48026;SDS011;50714;49.208;5.364;2023-07-16T20:40:15;4.95;;;3.42;;
48026;SDS011;50714;49.208;5.364;2023-07-16T20:50:17;4.22;;;3.00;;
48026;SDS011;50714;49.208;5.364;2023-07-16T21:00:18;4.40;;;3.17;;
48026;SDS011;50714;49.208;5.364;2023-07-16T21:10:21;4.85;;;3.38;;
48026;SDS011;50714;49.208;5.364;2023-07-16T21:20:25;5.20;;;3.40;;
48026;SDS011;50714;49.208;5.364;2023-07-16T21:30:28;4.30;;;2.90;;
48026;SDS011;50714;49.208;5.364;2023-07-16T21:40:29;3.80;;;3.25;;
48026;SDS011;50714;49.208;5.364;2023-07-16T21:50:29;4.35;;;3.40;;
48026;SDS011;50714;49.208;5.364;2023-07-16T22:00:30;4.55;;;3.22;;
48026;SDS011;50714;49.208;5.364;2023-07-16T22:10:31;4.00;;;2.88;;
48026;SDS011;50714;49.208;5.364;2023-07-16T22:20:31;4.43;;;3.28;;
48026;SDS011;50714;49.208;5.364;2023-07-16T22:30:32;4.95;;;3.47;;
48026;SDS011;50714;49.208;5.364;2023-07-16T22:40:32;4.82;;;3.33;;
48026;SDS011;50714;49.208;5.364;2023-07-16T22:50:32;4.25;;;2.92;;
48026;SDS011;50714;49.208;5.364;2023-07-16T23:00:33;4.90;;;3.30;;
48026;SDS011;50714;49.208;5.364;2023-07-16T23:10:34;5.38;;;3.17;;
48026;SDS011;50714;49.208;5.364;2023-07-16T23:20:34;5.00;;;2.90;;
48026;SDS011;50714;49.208;5.364;2023-07-16T23:30:35;3.70;;;3.17;;
48026;SDS011;50714;49.208;5.364;2023-07-16T23:40:35;4.50;;;2.95;;
48026;SDS011;50714;49.208;5.364;2023-07-16T23:50:36;4.25;;;3.00;;
